createdAt,value
2023-04-09T00:02:20.704Z,99712.81
2023-04-09T00:04:49.189Z,99716.63
2023-04-09T00:07:17.637Z,99721.22
2023-04-09T00:09:46.174Z,99729.16
2023-04-09T00:12:14.570Z,99729.66
2023-04-09T00:14:43.432Z,99735.00
2023-04-09T00:17:12.094Z,99736.03
2023-04-09T00:19:40.473Z,99745.97
2023-04-09T00:22:08.870Z,99745.75
2023-04-09T00:24:39.703Z,99743.19
2023-04-09T00:27:08.106Z,99747.78
2023-04-09T00:29:36.434Z,99746.25
2023-04-09T00:32:04.912Z,99755.94
2023-04-09T00:34:33.305Z,99764.63
2023-04-09T00:37:02.100Z,99770.75
2023-04-09T00:39:30.571Z,99765.38
2023-04-09T00:42:00.066Z,99786.84
2023-04-09T00:44:28.420Z,99783.03
2023-04-09T00:46:57.289Z,99788.94
2023-04-09T00:49:27.347Z,99793.78
2023-04-09T00:51:55.952Z,99794.28
2023-04-09T00:54:24.630Z,99803.22
2023-04-09T00:56:53.541Z,99795.28
2023-04-09T00:59:22.586Z,99799.88
2023-04-09T01:01:50.973Z,99799.66
2023-04-09T01:04:20.207Z,99795.81
2023-04-09T01:06:57.276Z,99806.28
2023-04-09T01:09:44.926Z,99803.97
2023-04-09T01:12:26.995Z,99801.16
2023-04-09T01:15:19.500Z,99797.78
2023-04-09T01:18:01.356Z,99805.47
2023-04-09T01:20:49.612Z,99805.97
2023-04-09T01:23:43.946Z,99798.03
2023-04-09T01:26:18.290Z,99798.03
2023-04-09T01:28:55.551Z,99796.75
2023-04-09T01:31:30.984Z,99805.19
2023-04-09T01:34:01.810Z,99802.34
2023-04-09T01:36:33.269Z,99797.22
2023-04-09T01:39:05.339Z,99803.31
2023-04-09T01:41:36.635Z,99805.84
2023-04-09T01:44:06.980Z,99809.94
2023-04-09T01:46:37.090Z,99814.78
2023-04-09T01:49:07.163Z,99821.91
2023-04-09T01:51:35.957Z,99816.22
2023-04-09T01:54:05.338Z,99814.41
2023-04-09T01:56:47.524Z,99819.50
2023-04-09T01:59:16.702Z,99815.88
2023-04-09T02:01:48.954Z,99824.28
2023-04-09T02:04:34.720Z,99822.22
2023-04-09T02:07:16.670Z,99823.69
2023-04-09T02:09:49.065Z,99823.41
2023-04-09T02:12:20.489Z,99823.66
2023-04-09T02:14:52.943Z,99825.94
2023-04-09T02:17:21.914Z,99825.13
2023-04-09T02:19:50.370Z,99823.81
2023-04-09T02:22:19.081Z,99819.69
2023-04-09T02:24:48.494Z,99817.34
2023-04-09T02:27:17.325Z,99822.41
2023-04-09T02:29:45.697Z,99821.84
2023-04-09T02:32:14.088Z,99811.28
2023-04-09T02:34:42.409Z,99811.25
2023-04-09T02:37:10.851Z,99817.34
2023-04-09T02:39:39.207Z,99806.78
2023-04-09T02:42:08.802Z,99803.66
2023-04-09T02:44:37.180Z,99805.19
2023-04-09T02:47:05.649Z,99805.16
2023-04-09T02:49:34.065Z,99804.09
2023-04-09T02:52:02.481Z,99799.19
2023-04-09T02:54:30.888Z,99803.00
2023-04-09T02:56:59.219Z,99794.47
2023-04-09T02:59:27.576Z,99792.13
2023-04-09T03:01:56.060Z,99789.25
2023-04-09T03:04:24.556Z,99789.19
2023-04-09T03:06:52.939Z,99786.81
2023-04-09T03:09:21.720Z,99780.56
2023-04-09T03:11:50.088Z,99782.09
2023-04-09T03:14:18.466Z,99775.16
2023-04-09T03:16:46.831Z,99773.09
2023-04-09T03:19:15.379Z,99774.84
2023-04-09T03:21:44.079Z,99770.97
2023-04-09T03:24:12.412Z,99766.56
2023-04-09T03:26:40.757Z,99763.44
2023-04-09T03:29:09.272Z,99761.38
2023-04-09T03:31:37.676Z,99756.47
2023-04-09T03:34:06.296Z,99758.00
2023-04-09T03:36:34.786Z,99752.09
2023-04-09T03:39:03.249Z,99749.72
2023-04-09T03:41:31.594Z,99750.63
2023-04-09T03:43:59.967Z,99740.78
2023-04-09T03:46:28.373Z,99743.75
2023-04-09T03:48:56.770Z,99739.53
2023-04-09T03:51:25.131Z,99739.44
2023-04-09T03:53:53.501Z,99738.84
2023-04-09T03:56:22.186Z,99741.56
2023-04-09T03:58:50.934Z,99737.88
2023-04-09T04:01:19.505Z,99732.16
2023-04-09T04:03:48.174Z,99731.00
2023-04-09T04:06:16.673Z,99725.47
2023-04-09T04:08:45.668Z,99726.13
2023-04-09T04:11:14.099Z,99724.41
2023-04-09T04:13:42.514Z,99712.69
2023-04-09T04:16:11.519Z,99709.41
2023-04-09T04:18:39.883Z,99701.59
2023-04-09T04:21:14.604Z,99689.44
2023-04-09T04:23:43.208Z,99690.63
2023-04-09T04:26:12.432Z,99688.66
2023-04-09T04:28:42.400Z,99685.81
2023-04-09T04:31:12.567Z,99687.00
2023-04-09T04:33:42.690Z,99685.03
2023-04-09T04:36:15.450Z,99676.03
2023-04-09T04:38:43.891Z,99671.56
2023-04-09T04:41:12.979Z,99663.16
2023-04-09T04:43:42.411Z,99663.22
2023-04-09T04:46:10.756Z,99664.63
2023-04-09T04:48:39.167Z,99661.16
2023-04-09T04:51:07.579Z,99660.69
2023-04-09T04:53:35.913Z,99655.28
2023-04-09T04:56:04.340Z,99651.78
2023-04-09T04:58:32.708Z,99650.34
2023-04-09T05:01:01.530Z,99636.25
2023-04-09T05:03:29.970Z,99631.44
2023-04-09T05:05:58.402Z,99625.28
2023-04-09T05:08:26.798Z,99602.66
2023-04-09T05:10:57.066Z,99607.06
2023-04-09T05:13:25.889Z,99599.38
2023-04-09T05:15:54.326Z,99590.53
2023-04-09T05:18:22.765Z,99582.63
2023-04-09T05:20:51.113Z,99571.91
2023-04-09T05:23:19.473Z,99563.44
2023-04-09T05:25:50.742Z,99558.38
2023-04-09T05:28:19.277Z,99549.88
2023-04-09T05:30:48.770Z,99543.47
2023-04-09T05:33:17.343Z,99543.31
2023-04-09T05:35:45.915Z,99529.91
2023-04-09T05:38:17.440Z,99532.56
2023-04-09T05:40:46.766Z,99527.84
2023-04-09T05:43:15.208Z,99530.53
2023-04-09T05:45:43.756Z,99524.50
2023-04-09T05:48:12.187Z,99516.19
2023-04-09T05:50:53.467Z,99511.28
2023-04-09T05:53:23.455Z,99500.50
2023-04-09T05:55:52.166Z,99495.38
2023-04-09T05:58:20.778Z,99494.06
2023-04-09T06:00:49.286Z,99476.47
2023-04-09T06:03:17.866Z,99478.16
2023-04-09T06:05:47.643Z,99475.91
2023-04-09T06:08:16.080Z,99453.38
2023-04-09T06:10:44.532Z,99457.16
2023-04-09T06:13:12.906Z,99443.19
2023-04-09T06:15:41.619Z,99439.75
2023-04-09T06:18:10.010Z,99437.69
2023-04-09T06:20:38.399Z,99433.69
2023-04-09T06:23:07.189Z,99425.94
2023-04-09T06:25:36.589Z,99424.78
2023-04-09T06:28:05.338Z,99418.13
2023-04-09T06:30:33.825Z,99414.91
2023-04-09T06:33:02.223Z,99411.28
2023-04-09T06:35:30.898Z,99389.88
2023-04-09T06:37:59.246Z,99395.34
2023-04-09T06:40:27.716Z,99387.19
2023-04-09T06:42:57.013Z,99389.47
2023-04-09T06:45:25.790Z,99373.75
2023-04-09T06:47:54.287Z,99373.75
2023-04-09T06:50:22.828Z,99361.03
2023-04-09T06:52:52.257Z,99357.63
2023-04-09T06:55:20.833Z,99354.78
2023-04-09T06:57:49.264Z,99352.13
2023-04-09T07:00:17.778Z,99345.09
2023-04-09T07:02:46.382Z,99338.25
2023-04-09T07:05:14.945Z,99332.19
2023-04-09T07:07:45.720Z,99324.59
2023-04-09T07:10:14.149Z,99314.16
2023-04-09T07:12:42.517Z,99307.31
2023-04-09T07:15:11.251Z,99299.91
2023-04-09T07:17:39.767Z,99288.28
2023-04-09T07:20:08.566Z,99289.38
2023-04-09T07:22:37.681Z,99283.50
2023-04-09T07:25:06.500Z,99269.28
2023-04-09T07:27:34.915Z,99258.66
2023-04-09T07:30:04.205Z,99255.97
2023-04-09T07:32:32.647Z,99251.81
2023-04-09T07:35:01.678Z,99253.88
2023-04-09T07:37:30.083Z,99244.59
2023-04-09T07:39:58.801Z,99245.75
2023-04-09T07:42:28.118Z,99241.97
2023-04-09T07:44:57.534Z,99235.53
2023-04-09T07:47:25.934Z,99239.13
2023-04-09T07:49:54.346Z,99229.84
2023-04-09T07:52:22.726Z,99227.56
2023-04-09T07:54:51.324Z,99221.13
2023-04-09T07:57:19.756Z,99221.72
2023-04-09T07:59:48.139Z,99216.03
2023-04-09T08:02:16.998Z,99217.53
2023-04-09T08:04:45.621Z,99198.97
2023-04-09T08:07:14.100Z,99200.31
2023-04-09T08:09:42.448Z,99196.72
2023-04-09T08:12:10.849Z,99192.53
2023-04-09T08:14:39.263Z,99183.06
2023-04-09T08:17:07.648Z,99181.41
2023-04-09T08:19:37.316Z,99175.38
2023-04-09T08:22:07.195Z,99166.66
2023-04-09T08:24:36.384Z,99161.56
2023-04-09T08:27:05.578Z,99166.31
2023-04-09T08:29:35.409Z,99161.06
2023-04-09T08:32:03.990Z,99155.16
2023-04-09T08:34:32.510Z,99159.16
2023-04-09T08:37:01.403Z,99151.81
2023-04-09T08:39:29.968Z,99145.38
2023-04-09T08:42:03.475Z,99143.53
2023-04-09T08:44:32.184Z,99146.38
2023-04-09T08:47:02.060Z,99140.47
2023-04-09T08:49:30.472Z,99143.91
2023-04-09T08:51:58.983Z,99140.72
2023-04-09T08:54:27.794Z,99142.81
2023-04-09T08:56:57.297Z,99137.53
2023-04-09T08:59:25.979Z,99132.97
2023-04-09T09:02:14.538Z,99143.59
2023-04-09T09:04:50.576Z,99143.41
2023-04-09T09:07:19.024Z,99148.94
2023-04-09T09:10:03.327Z,99137.38
2023-04-09T09:12:42.785Z,99141.41
2023-04-09T09:15:30.538Z,99132.53
2023-04-09T09:18:01.122Z,99139.94
2023-04-09T09:20:30.105Z,99133.00
2023-04-09T09:22:58.660Z,99133.94
2023-04-09T09:25:27.329Z,99137.00
2023-04-09T09:27:56.328Z,99134.38
2023-04-09T09:30:28.685Z,99137.03
2023-04-09T09:33:07.707Z,99132.50
2023-04-09T09:35:52.279Z,99138.59
2023-04-09T09:38:21.141Z,99142.75
2023-04-09T09:40:50.611Z,99144.66
2023-04-09T09:43:19.076Z,99152.44
2023-04-09T09:45:49.593Z,99143.69
2023-04-09T09:48:18.054Z,99146.38
2023-04-09T09:50:48.649Z,99138.44
2023-04-09T09:53:24.032Z,99144.69
2023-04-09T09:55:55.082Z,99143.56
2023-04-09T09:58:35.686Z,99156.66
2023-04-09T10:01:09.025Z,99146.28
2023-04-09T10:03:40.622Z,99146.47
2023-04-09T10:06:10.180Z,99153.69
2023-04-09T10:08:43.378Z,99159.34
2023-04-09T10:11:13.414Z,99159.38
2023-04-09T10:13:54.144Z,99165.63
2023-04-09T10:16:24.276Z,99160.72
2023-04-09T10:18:56.100Z,99164.34
2023-04-09T10:22:00.529Z,99167.00
2023-04-09T10:24:28.870Z,99171.34
2023-04-09T10:27:17.360Z,99162.25
2023-04-09T10:29:50.737Z,99156.78
2023-04-09T10:32:29.148Z,99156.03
2023-04-09T10:35:00.231Z,99159.03
2023-04-09T10:37:29.545Z,99159.03
2023-04-09T10:39:58.674Z,99157.72
2023-04-09T10:42:42.931Z,99155.66
2023-04-09T10:45:15.684Z,99155.63
2023-04-09T10:47:47.176Z,99157.28
2023-04-09T10:50:26.701Z,99165.41
2023-04-09T10:53:01.697Z,99161.63
2023-04-09T10:55:38.090Z,99172.56
2023-04-09T10:58:10.493Z,99172.19
2023-04-09T11:00:45.388Z,99175.19
2023-04-09T11:03:24.379Z,99174.03
2023-04-09T11:06:12.458Z,99185.72
2023-04-09T11:08:42.556Z,99187.44
2023-04-09T11:11:12.462Z,99191.94
2023-04-09T11:13:44.073Z,99185.69
2023-04-09T11:16:24.753Z,99183.00
2023-04-09T11:18:57.157Z,99182.41
2023-04-09T11:21:32.980Z,99179.94
2023-04-09T11:24:01.834Z,99183.69
2023-04-09T11:26:50.149Z,99173.28
2023-04-09T11:29:18.693Z,99184.94
2023-04-09T11:31:47.115Z,99172.50
2023-04-09T11:34:15.630Z,99187.56
2023-04-09T11:36:43.983Z,99184.13
2023-04-09T11:39:12.493Z,99181.66
2023-04-09T11:41:41.090Z,99185.41
2023-04-09T11:44:09.739Z,99182.38
2023-04-09T11:46:39.753Z,99184.22
2023-04-09T11:49:08.743Z,99183.06
2023-04-09T11:51:37.910Z,99193.41
2023-04-09T11:54:12.433Z,99197.34
2023-04-09T11:56:40.916Z,99194.13
2023-04-09T11:59:09.412Z,99188.63
2023-04-09T12:01:37.937Z,99189.72
2023-04-09T12:04:06.906Z,99187.22
2023-04-09T12:06:42.741Z,99193.44
2023-04-09T12:09:14.623Z,99186.81
2023-04-09T12:11:45.775Z,99186.63
2023-04-09T12:14:15.788Z,99194.69
2023-04-09T12:16:47.579Z,99188.09
2023-04-09T12:19:16.611Z,99192.59
2023-04-09T12:21:51.272Z,99192.19
2023-04-09T12:24:21.205Z,99194.03
2023-04-09T12:26:49.949Z,99200.00
2023-04-09T12:29:20.694Z,99209.59
2023-04-09T12:31:49.246Z,99213.53
2023-04-09T12:34:18.486Z,99221.03
2023-04-09T12:36:46.859Z,99217.03
2023-04-09T12:39:15.209Z,99220.94
2023-04-09T12:41:43.604Z,99214.34
2023-04-09T12:44:12.004Z,99219.78
2023-04-09T12:46:40.399Z,99220.13
2023-04-09T12:49:08.952Z,99221.97
2023-04-09T12:51:38.033Z,99229.47
2023-04-09T12:54:06.619Z,99233.41
2023-04-09T12:56:34.981Z,99225.47
2023-04-09T12:59:03.525Z,99224.31
2023-04-09T13:01:32.462Z,99236.16
2023-04-09T13:04:01.014Z,99234.44
2023-04-09T13:06:29.376Z,99242.47
2023-04-09T13:08:57.696Z,99237.16
2023-04-09T13:11:26.101Z,99235.41
2023-04-09T13:13:54.797Z,99239.56
2023-04-09T13:16:23.297Z,99248.34
2023-04-09T13:18:52.862Z,99246.09
2023-04-09T13:21:21.806Z,99246.41
2023-04-09T13:23:50.179Z,99255.22
2023-04-09T13:26:18.575Z,99263.25
2023-04-09T13:28:47.283Z,99260.97
2023-04-09T13:31:15.761Z,99268.47
2023-04-09T13:33:44.603Z,99265.44
2023-04-09T13:36:13.185Z,99271.41
2023-04-09T13:38:41.555Z,99271.41
2023-04-09T13:41:09.993Z,99277.34
2023-04-09T13:43:38.335Z,99271.50
2023-04-09T13:46:07.813Z,99269.78
2023-04-09T13:48:38.572Z,99276.50
2023-04-09T13:51:07.876Z,99276.28
2023-04-09T13:53:36.394Z,99289.44
2023-04-09T13:56:04.816Z,99289.22
2023-04-09T13:58:33.168Z,99294.44
2023-04-09T14:01:03.231Z,99299.09
2023-04-09T14:03:36.332Z,99298.13
2023-04-09T14:06:05.366Z,99298.34
2023-04-09T14:08:33.756Z,99306.25
2023-04-09T14:11:02.472Z,99311.91
2023-04-09T14:13:31.707Z,99310.59
2023-04-09T14:16:00.624Z,99324.16
2023-04-09T14:18:29.198Z,99322.63
2023-04-09T14:20:58.261Z,99323.41
2023-04-09T14:23:30.137Z,99326.00
2023-04-09T14:25:58.734Z,99318.84
2023-04-09T14:28:27.330Z,99324.28
2023-04-09T14:30:55.718Z,99327.09
2023-04-09T14:33:24.095Z,99326.84
2023-04-09T14:35:53.303Z,99335.84
2023-04-09T14:38:21.741Z,99341.50
2023-04-09T14:40:50.191Z,99342.25
2023-04-09T14:43:18.542Z,99341.50
2023-04-09T14:45:47.210Z,99349.41
2023-04-09T14:48:15.988Z,99347.91
2023-04-09T14:50:44.862Z,99345.63
2023-04-09T14:53:13.501Z,99343.34
2023-04-09T14:55:41.933Z,99341.81
2023-04-09T14:58:10.298Z,99335.19
2023-04-09T15:00:39.978Z,99336.28
2023-04-09T15:03:08.733Z,99341.94
2023-04-09T15:05:37.511Z,99345.28
2023-04-09T15:08:06.077Z,99341.50
2023-04-09T15:10:34.449Z,99355.38
2023-04-09T15:13:02.869Z,99357.19
2023-04-09T15:15:31.561Z,99352.09
2023-04-09T15:18:06.435Z,99353.94
2023-04-09T15:20:39.099Z,99348.06
2023-04-09T15:23:07.614Z,99348.56
2023-04-09T15:25:36.290Z,99346.31
2023-04-09T15:28:05.305Z,99346.31
2023-04-09T15:30:33.976Z,99350.41
2023-04-09T15:33:02.411Z,99353.25
2023-04-09T15:35:30.972Z,99354.53
2023-04-09T15:37:59.695Z,99350.97
2023-04-09T15:40:29.965Z,99354.31
2023-04-09T15:42:58.313Z,99352.81
2023-04-09T15:45:27.770Z,99366.69
2023-04-09T15:47:56.566Z,99355.72
2023-04-09T15:50:25.094Z,99347.03
2023-04-09T15:52:53.501Z,99346.81
2023-04-09T15:55:23.427Z,99356.56
2023-04-09T15:57:51.788Z,99359.94
2023-04-09T16:00:20.388Z,99353.31
2023-04-09T16:02:48.714Z,99353.84
2023-04-09T16:05:17.261Z,99355.69
2023-04-09T16:07:45.633Z,99343.41
2023-04-09T16:10:15.611Z,99346.75
2023-04-09T16:12:44.267Z,99335.03
2023-04-09T16:15:12.931Z,99337.63
2023-04-09T16:17:41.544Z,99346.63
2023-04-09T16:20:10.385Z,99343.59
2023-04-09T16:22:38.780Z,99339.78
2023-04-09T16:25:07.754Z,99339.56
2023-04-09T16:27:36.210Z,99340.09
2023-04-09T16:30:05.134Z,99338.59
2023-04-09T16:32:33.531Z,99332.72
2023-04-09T16:35:02.085Z,99335.31
2023-04-09T16:37:32.110Z,99326.88
2023-04-09T16:40:00.545Z,99330.19
2023-04-09T16:42:29.036Z,99323.03
2023-04-09T16:44:57.443Z,99324.31
2023-04-09T16:47:25.954Z,99320.50
2023-04-09T16:49:54.362Z,99321.59
2023-04-09T16:52:22.739Z,99319.31
2023-04-09T16:54:51.660Z,99307.81
2023-04-09T16:57:20.001Z,99312.69
2023-04-09T16:59:48.431Z,99313.22
2023-04-09T17:02:16.893Z,99316.56
2023-04-09T17:04:45.291Z,99313.00
2023-04-09T17:07:13.732Z,99308.66
2023-04-09T17:09:42.749Z,99306.38
2023-04-09T17:12:11.192Z,99309.19
2023-04-09T17:14:39.874Z,99301.50
2023-04-09T17:17:08.494Z,99297.94
2023-04-09T17:19:37.819Z,99294.34
2023-04-09T17:22:06.782Z,99295.66
2023-04-09T17:24:37.722Z,99295.66
2023-04-09T17:27:06.581Z,99298.47
2023-04-09T17:29:35.349Z,99301.28
2023-04-09T17:32:03.670Z,99304.63
2023-04-09T17:34:32.333Z,99301.59
2023-04-09T17:37:00.966Z,99299.31
2023-04-09T17:39:32.035Z,99293.47
2023-04-09T17:42:01.729Z,99289.13
2023-04-09T17:44:32.315Z,99288.13
2023-04-09T17:47:06.748Z,99286.06
2023-04-09T17:49:35.307Z,99286.59
2023-04-09T17:52:03.705Z,99289.41
2023-04-09T17:54:36.176Z,99291.47
2023-04-09T17:57:05.586Z,99286.38
2023-04-09T17:59:34.698Z,99272.06
2023-04-09T18:02:03.229Z,99274.88
2023-04-09T18:04:32.588Z,99268.25
2023-04-09T18:07:01.177Z,99271.63
2023-04-09T18:09:29.527Z,99260.34
2023-04-09T18:11:58.783Z,99260.13
2023-04-09T18:14:27.175Z,99261.44
2023-04-09T18:16:55.556Z,99257.09
2023-04-09T18:19:23.890Z,99247.13
2023-04-09T18:21:52.440Z,99252.75
2023-04-09T18:24:21.068Z,99252.53
2023-04-09T18:26:49.466Z,99244.63
2023-04-09T18:29:17.829Z,99245.91
2023-04-09T18:31:46.501Z,99242.13
2023-04-09T18:34:14.862Z,99244.72
2023-04-09T18:36:43.819Z,99244.47
2023-04-09T18:39:12.383Z,99242.19
2023-04-09T18:41:41.268Z,99237.63
2023-04-09T18:44:09.673Z,99244.75
2023-04-09T18:46:38.200Z,99239.66
2023-04-09T18:49:07.070Z,99228.91
2023-04-09T18:51:35.493Z,99225.88
2023-04-09T18:54:03.860Z,99225.13
2023-04-09T18:56:32.255Z,99222.84
2023-04-09T18:59:00.613Z,99222.63
2023-04-09T19:01:29.417Z,99217.28
2023-04-09T19:03:58.116Z,99217.06
2023-04-09T19:06:28.133Z,99215.31
2023-04-09T19:08:59.094Z,99214.56
2023-04-09T19:11:27.972Z,99208.72
2023-04-09T19:13:56.434Z,99209.47
2023-04-09T19:16:24.891Z,99208.72
2023-04-09T19:18:53.470Z,99198.75
2023-04-09T19:21:21.946Z,99200.03
2023-04-09T19:23:50.418Z,99190.09
2023-04-09T19:26:19.179Z,99194.69
2023-04-09T19:28:47.796Z,99189.59
2023-04-09T19:31:17.111Z,99190.91
2023-04-09T19:33:45.582Z,99185.03
2023-04-09T19:36:14.924Z,99179.94
2023-04-09T19:38:43.317Z,99175.09
2023-04-09T19:41:11.707Z,99179.72
2023-04-09T19:43:40.086Z,99173.88
2023-04-09T19:46:09.495Z,99170.84
2023-04-09T19:48:38.867Z,99168.56
2023-04-09T19:51:07.785Z,99164.97
2023-04-09T19:53:37.308Z,99174.72
2023-04-09T19:56:05.805Z,99171.44
2023-04-09T19:58:34.621Z,99175.56
2023-04-09T20:01:03.471Z,99175.56
2023-04-09T20:03:34.219Z,99170.47
2023-04-09T20:06:09.325Z,99171.75
2023-04-09T20:08:38.832Z,99167.97
2023-04-09T20:11:07.760Z,99167.19
2023-04-09T20:13:36.116Z,99165.44
2023-04-09T20:16:04.848Z,99163.91
2023-04-09T20:18:33.292Z,99167.25
2023-04-09T20:21:01.615Z,99163.44
2023-04-09T20:23:31.131Z,99165.50
2023-04-09T20:25:59.480Z,99168.84
2023-04-09T20:28:28.782Z,99163.97
2023-04-09T20:30:57.535Z,99166.78
2023-04-09T20:33:25.969Z,99159.66
2023-04-09T20:35:54.358Z,99163.97
2023-04-09T20:38:23.336Z,99168.09
2023-04-09T20:40:53.567Z,99175.00
2023-04-09T20:43:22.354Z,99165.56
2023-04-09T20:45:50.997Z,99161.97
2023-04-09T20:48:19.905Z,99168.13
2023-04-09T20:50:48.549Z,99159.69
2023-04-09T20:53:16.995Z,99158.94
2023-04-09T20:55:45.450Z,99159.47
2023-04-09T20:58:13.816Z,99165.84
2023-04-09T21:00:42.536Z,99162.06
2023-04-09T21:03:10.990Z,99159.78
2023-04-09T21:05:39.451Z,99165.41
2023-04-09T21:08:08.067Z,99155.97
2023-04-09T21:10:36.401Z,99158.03
2023-04-09T21:13:04.750Z,99163.44
2023-04-09T21:15:33.135Z,99163.44
2023-04-09T21:18:01.591Z,99171.84
2023-04-09T21:20:29.983Z,99159.09
2023-04-09T21:22:58.357Z,99162.41
2023-04-09T21:25:30.359Z,99156.03
2023-04-09T21:27:58.761Z,99164.47
2023-04-09T21:30:27.209Z,99162.41
2023-04-09T21:32:55.629Z,99162.94
2023-04-09T21:35:24.086Z,99165.75
2023-04-09T21:37:52.627Z,99160.66
2023-04-09T21:40:21.212Z,99178.81
2023-04-09T21:42:49.665Z,99174.47
2023-04-09T21:45:18.478Z,99176.53
2023-04-09T21:47:47.150Z,99187.56
2023-04-09T21:50:16.023Z,99183.97
2023-04-09T21:52:47.627Z,99188.59
2023-04-09T21:55:17.037Z,99189.91
2023-04-09T21:57:45.477Z,99195.53
2023-04-09T22:00:17.181Z,99194.53
2023-04-09T22:02:45.683Z,99200.16
2023-04-09T22:05:14.220Z,99200.91
2023-04-09T22:07:43.733Z,99211.63
2023-04-09T22:10:12.255Z,99212.16
2023-04-09T22:12:40.646Z,99215.72
2023-04-09T22:15:09.575Z,99216.47
2023-04-09T22:17:37.990Z,99216.47
2023-04-09T22:20:07.969Z,99217.25
2023-04-09T22:22:36.570Z,99222.88
2023-04-09T22:25:07.766Z,99222.88
2023-04-09T22:27:36.280Z,99210.88
2023-04-09T22:30:05.078Z,99224.91
2023-04-09T22:32:34.313Z,99223.41
2023-04-09T22:35:02.910Z,99230.53
2023-04-09T22:37:31.803Z,99224.91
2023-04-09T22:40:00.190Z,99233.34
2023-04-09T22:42:28.641Z,99234.88
2023-04-09T22:44:56.990Z,99238.44
2023-04-09T22:47:25.432Z,99246.88
2023-04-09T22:49:55.848Z,99237.16
2023-04-09T22:52:24.207Z,99245.59
2023-04-09T22:54:52.550Z,99246.88
2023-04-09T22:57:20.956Z,99250.44
2023-04-09T22:59:49.357Z,99251.75
2023-04-09T23:02:18.043Z,99251.75
2023-04-09T23:04:46.562Z,99253.25
2023-04-09T23:07:14.935Z,99270.88
2023-04-09T23:09:43.350Z,99275.75
2023-04-09T23:12:11.727Z,99270.13
2023-04-09T23:14:40.099Z,99275.75
2023-04-09T23:17:08.492Z,99279.31
2023-04-09T23:19:36.927Z,99275.75
2023-04-09T23:22:05.298Z,99282.13
2023-04-09T23:24:33.639Z,99287.75
2023-04-09T23:27:02.208Z,99290.56
2023-04-09T23:29:30.557Z,99293.38
2023-04-09T23:31:59.061Z,99296.94
2023-04-09T23:34:27.481Z,99306.91
2023-04-09T23:36:55.894Z,99300.75
2023-04-09T23:39:24.289Z,99303.78
2023-04-09T23:41:52.639Z,99313.22
2023-04-09T23:44:21.163Z,99316.25
2023-04-09T23:46:49.578Z,99320.59
2023-04-09T23:49:18.034Z,99322.38
2023-04-09T23:51:46.372Z,99326.94
2023-04-09T23:54:14.725Z,99326.66
2023-04-09T23:56:43.342Z,99332.00
2023-04-09T23:59:11.725Z,99336.81
